This is the latest recevied weather packets stored in our database for station/object WX7FGZ-6. If no packets are shown the sender has not sent any weather packets the latest 10 day(s).
| Time | Temp. | Humidity | Pressure | Rain* | Wind** | Luminosity | Snow |
|---|---|---|---|---|---|---|---|
| 1778101355 | 5° C | 48% | 1021.9 hPa | 0 mm | - | - | - |
| 1778101056 | 5° C | 53% | 1021.9 hPa | 0 mm | - | - | - |
| 1778100756 | 4.44° C | 53% | 1021.9 hPa | 0 mm | - | - | - |
| 1778100608 | 4.44° C | 53% | 1022 hPa | 0 mm | - | - | - |
| 1778100456 | 4.44° C | 53% | 1022 hPa | 0 mm | - | - | - |
| 1778100156 | 4.44° C | 54% | 1021.9 hPa | 0 mm | - | - | - |
| 1778099855 | 4.44° C | 58% | 1021.9 hPa | 0 mm | - | - | - |
| 1778099555 | 3.89° C | 56% | 1021.9 hPa | 0 mm | - | - | - |
| 1778099484 | 3.89° C | 57% | 1021.9 hPa | 0 mm | - | - | - |
| 1778099256 | 3.89° C | 57% | 1021.9 hPa | 0 mm | - | - | - |
| 1778098956 | 3.89° C | 60% | 1021.8 hPa | 0.25 mm | - | - | - |
| 1778098656 | 3.33° C | 58% | 1021.9 hPa | 0.76 mm | - | - | - |
| 1778098356 | 3.89° C | 60% | 1021.9 hPa | 1.02 mm | - | - | - |
| 1778098055 | 3.33° C | 56% | 1021.9 hPa | 1.02 mm | - | - | - |
| 1778097756 | 3.89° C | 56% | 1021.9 hPa | 1.02 mm | - | - | - |
| 1778097600 | 3.89° C | 55% | 1021.8 hPa | 1.02 mm | - | - | - |
| 1778097456 | 3.89° C | 55% | 1021.8 hPa | 1.02 mm | - | - | - |
| 1778097029 | 3.33° C | 53% | 1021.6 hPa | 1.02 mm | - | - | - |
| 1778096731 | 3.89° C | 54% | 1021.7 hPa | 1.02 mm | - | - | - |
| 1778096429 | 3.89° C | 54% | 1021.6 hPa | 1.02 mm | - | - | - |
| 1778096314 | 3.89° C | 58% | 1021.4 hPa | 1.02 mm | - | - | - |
| 1778096129 | 3.89° C | 58% | 1021.4 hPa | 1.02 mm | - | - | - |
| 1778095829 | 3.33° C | 57% | 1021.3 hPa | 1.02 mm | - | - | - |
| 1778095530 | 2.78° C | 52% | 1021.2 hPa | 0.76 mm | - | - | - |
| 1778095230 | 3.33° C | 55% | 1021 hPa | 0.51 mm | - | - | - |
* Rain latest hour (hover to see other rain measurements)
** Current wind speed in m/s (hover to see current wind gust speed)